Time;durP1;ratioP1;P1;durP2;ratioP2;P2;SDS_P1;SDS_P2;PMS_P1;PMS_P2;Temp;Humidity;BMP_temperature;BMP_pressure;BME280_temperature;BME280_humidity;BME280_pressure;Samples;Min_cycle;Max_cycle;Signal;HPM_P1;HPM_P2
2023/05/24 04:06:31;;;;;;;;;30.00;30.00;;;;;;;;6110724;39;10000246;-57
2023/05/24 04:12:36;;;;;;;;;28.00;26.00;;;;;;;;6491515;39;9113;-57
2023/05/24 06:40:32;;;;;;;;;27.33;26.00;;;;;;;;6493964;39;9008;-58
2023/05/24 06:46:45;;;;;;;;;37.67;33.33;;;;;;;;6487389;39;8997;-59
2023/05/24 06:52:52;;;;;;;;;41.50;34.75;;;;;;;;6486683;39;9069;-59
2023/05/24 06:58:56;;;;;;;;;42.00;36.50;;;;;;;;6487862;39;8924;-58
2023/05/24 07:05:01;;;;;;;;;53.25;43.50;;;;;;;;6488744;39;8932;-57
2023/05/24 07:11:05;;;;;;;;;23.75;23.00;;;;;;;;6486846;46;8933;-58
2023/05/24 07:17:11;;;;;;;;;28.25;25.75;;;;;;;;6485663;39;10743;-58
2023/05/24 07:23:14;;;;;;;;;25.00;23.50;;;;;;;;6485357;39;8928;-58
2023/05/24 07:29:17;;;;;;;;;23.00;20.75;;;;;;;;6485359;39;9583;-59
2023/05/24 07:35:22;;;;;;;;;17.75;16.75;;;;;;;;6484136;31;9020;-61
2023/05/24 07:41:26;;;;;;;;;24.50;23.00;;;;;;;;6485039;47;8916;-57
2023/05/24 07:47:31;;;;;;;;;23.00;21.50;;;;;;;;6485589;39;8955;-59
2023/05/24 07:53:36;;;;;;;;;22.00;21.00;;;;;;;;6487282;46;9006;-61
2023/05/24 07:59:40;;;;;;;;;27.00;27.00;;;;;;;;6489700;39;8976;-58
2023/05/24 08:05:43;;;;;;;;;22.00;21.50;;;;;;;;6489843;39;9710;-60
2023/05/24 08:11:45;;;;;;;;;35.75;33.00;;;;;;;;6488698;39;8972;-59
2023/05/24 08:17:49;;;;;;;;;33.25;31.50;;;;;;;;6489532;39;8920;-59
2023/05/24 08:23:53;;;;;;;;;23.25;20.75;;;;;;;;6488591;39;8951;-59
2023/05/24 08:29:56;;;;;;;;;18.00;18.00;;;;;;;;6489651;31;9092;-60
2023/05/24 08:35:59;;;;;;;;;22.25;19.50;;;;;;;;6488839;39;9052;-59
2023/05/24 08:42:06;;;;;;;;;27.25;24.25;;;;;;;;6488896;39;9761;-59
2023/05/24 08:48:17;;;;;;;;;22.00;21.00;;;;;;;;6489790;31;8964;-60
2023/05/24 08:54:20;;;;;;;;;19.25;18.75;;;;;;;;6488435;31;9592;-58
2023/05/24 09:00:23;;;;;;;;;44.75;38.50;;;;;;;;6487101;46;8944;-59
2023/05/24 09:06:29;;;;;;;;;20.25;16.50;;;;;;;;6486126;46;8961;-58
2023/05/24 09:12:36;;;;;;;;;17.00;16.00;;;;;;;;6485635;46;9004;-58
2023/05/24 09:18:41;;;;;;;;;17.50;17.50;;;;;;;;6487018;31;8924;-59
2023/05/24 09:24:49;;;;;;;;;15.00;15.00;;;;;;;;6486292;39;8991;-59
2023/05/24 09:31:02;;;;;;;;;12.50;12.50;;;;;;;;6485679;46;8970;-58
2023/05/24 09:37:20;;;;;;;;;18.50;18.50;;;;;;;;6486671;31;9069;-57
2023/05/24 09:43:30;;;;;;;;;20.00;16.00;;;;;;;;6485857;31;9448;-61
2023/05/24 09:49:36;;;;;;;;;16.00;15.50;;;;;;;;6485348;39;8941;-59
2023/05/24 09:55:38;;;;;;;;;16.33;16.33;;;;;;;;6486396;46;8980;-58
2023/05/24 10:01:41;;;;;;;;;15.75;15.75;;;;;;;;6533168;31;8987;-58
2023/05/24 10:07:47;;;;;;;;;17.75;17.75;;;;;;;;6485028;46;8930;-58
2023/05/24 10:13:50;;;;;;;;;18.00;17.25;;;;;;;;6486344;39;9008;-59
2023/05/24 10:19:53;;;;;;;;;16.50;16.50;;;;;;;;6486909;46;8939;-58
2023/05/24 10:26:07;;;;;;;;;15.25;15.25;;;;;;;;6486186;39;10147;-58
2023/05/24 10:32:13;;;;;;;;;15.50;15.50;;;;;;;;6485669;31;8944;-59
2023/05/24 10:38:21;;;;;;;;;14.75;14.50;;;;;;;;6485726;46;8964;-60
2023/05/24 10:44:30;;;;;;;;;16.00;16.00;;;;;;;;6484281;31;8888;-59
2023/05/24 10:50:32;;;;;;;;;14.00;13.25;;;;;;;;6484618;46;8983;-59
2023/05/24 10:56:48;;;;;;;;;13.50;12.50;;;;;;;;6484238;31;9050;-61
2023/05/24 11:03:22;;;;;;;;;33.00;31.00;;;;;;;;6483021;39;9933;-60
2023/05/24 11:09:27;;;;;;;;;18.25;16.50;;;;;;;;6486507;39;8909;-59
2023/05/24 11:15:50;;;;;;;;;13.25;13.25;;;;;;;;6489285;39;8905;-58
2023/05/24 11:21:57;;;;;;;;;12.25;11.50;;;;;;;;6486177;46;8963;-57
2023/05/24 11:28:06;;;;;;;;;14.00;13.00;;;;;;;;6488147;39;8934;-58
2023/05/24 11:34:11;;;;;;;;;13.00;10.25;;;;;;;;6485964;39;9434;-59
2023/05/24 11:40:16;;;;;;;;;11.00;11.00;;;;;;;;6486585;47;8988;-58
2023/05/24 11:46:19;;;;;;;;;13.00;13.00;;;;;;;;6487717;47;8970;-57
2023/05/24 11:52:24;;;;;;;;;13.50;13.25;;;;;;;;6487257;39;9039;-60
2023/05/24 11:58:42;;;;;;;;;15.25;15.25;;;;;;;;6488396;47;8940;-57
2023/05/24 12:04:46;;;;;;;;;13.50;11.25;;;;;;;;6487742;39;9047;-60
2023/05/24 12:10:51;;;;;;;;;7.75;7.75;;;;;;;;6488530;39;8906;-58
2023/05/24 12:17:02;;;;;;;;;10.25;9.25;;;;;;;;6487495;39;9572;-57
2023/05/24 12:23:07;;;;;;;;;10.75;9.25;;;;;;;;6487574;39;8909;-56
2023/05/24 12:29:12;;;;;;;;;9.25;9.25;;;;;;;;6487992;31;8982;-59
2023/05/24 12:35:19;;;;;;;;;11.00;9.25;;;;;;;;6489155;46;8914;-56
2023/05/24 12:41:22;;;;;;;;;8.50;8.50;;;;;;;;6487169;39;9602;-58
2023/05/24 12:47:25;;;;;;;;;7.75;7.75;;;;;;;;6486088;46;8917;-59
2023/05/24 12:53:28;;;;;;;;;8.75;8.00;;;;;;;;6486253;31;9131;-59
2023/05/24 12:59:30;;;;;;;;;9.25;8.75;;;;;;;;6487561;39;8949;-58
2023/05/24 13:05:33;;;;;;;;;8.00;6.50;;;;;;;;6484235;31;9070;-60
2023/05/24 13:11:35;;;;;;;;;6.50;6.50;;;;;;;;6484669;31;9017;-58
2023/05/24 13:17:42;;;;;;;;;8.25;8.00;;;;;;;;6484502;39;9075;-58
2023/05/24 13:23:48;;;;;;;;;6.00;6.00;;;;;;;;6486016;39;8951;-59
2023/05/24 13:29:51;;;;;;;;;8.00;8.00;;;;;;;;6486934;39;9128;-60
2023/05/24 13:36:00;;;;;;;;;8.00;7.50;;;;;;;;6487055;39;9013;-58
2023/05/24 13:42:03;;;;;;;;;8.00;8.00;;;;;;;;6487389;46;9571;-58
2023/05/24 13:48:05;;;;;;;;;10.50;8.75;;;;;;;;6486507;39;8933;-57
2023/05/24 13:54:10;;;;;;;;;8.25;8.25;;;;;;;;6486991;31;8936;-59
2023/05/24 14:00:13;;;;;;;;;7.00;7.00;;;;;;;;6487975;31;9020;-58
2023/05/24 14:06:15;;;;;;;;;7.25;7.25;;;;;;;;6489281;39;10105;-58
2023/05/24 14:12:18;;;;;;;;;7.00;6.75;;;;;;;;6488576;46;8879;-59
2023/05/24 14:18:21;;;;;;;;;7.00;5.25;;;;;;;;6307276;39;10002353;-59
2023/05/24 14:24:26;;;;;;;;;6.00;6.00;;;;;;;;6489941;31;8988;-57
2023/05/24 14:30:32;;;;;;;;;7.75;7.75;;;;;;;;6490923;31;8936;-59
2023/05/24 14:36:34;;;;;;;;;3.50;1.50;;;;;;;;6489883;39;8995;-58
2023/05/24 14:42:37;;;;;;;;;6.00;6.00;;;;;;;;6490304;31;8958;-58
2023/05/24 14:48:40;;;;;;;;;8.25;7.50;;;;;;;;6308506;39;10000650;-59
2023/05/24 14:54:43;;;;;;;;;5.50;5.50;;;;;;;;6490369;39;8856;-58
2023/05/24 15:00:45;;;;;;;;;8.75;8.75;;;;;;;;6490154;39;8914;-58
2023/05/24 15:06:48;;;;;;;;;6.75;6.75;;;;;;;;6488128;31;8945;-57
2023/05/24 15:12:51;;;;;;;;;6.25;6.25;;;;;;;;6490330;31;9494;-58
2023/05/24 15:18:53;;;;;;;;;6.25;4.50;;;;;;;;6488675;46;8848;-58
2023/05/24 15:24:55;;;;;;;;;6.50;6.50;;;;;;;;6489379;39;9541;-58
2023/05/24 15:30:57;;;;;;;;;6.25;6.25;;;;;;;;6489597;39;8843;-58
2023/05/24 15:37:00;;;;;;;;;8.00;7.00;;;;;;;;6488396;31;8947;-60
2023/05/24 15:43:02;;;;;;;;;7.00;7.00;;;;;;;;6489102;31;8829;-58
2023/05/24 15:49:04;;;;;;;;;7.25;7.25;;;;;;;;6487906;39;8873;-58
2023/05/24 15:55:08;;;;;;;;;8.00;8.00;;;;;;;;6489020;31;8904;-57
2023/05/24 16:01:10;;;;;;;;;6.75;6.75;;;;;;;;6489521;39;9163;-62
2023/05/24 16:07:14;;;;;;;;;7.00;7.00;;;;;;;;6488969;39;8889;-58
2023/05/24 16:13:18;;;;;;;;;8.25;7.75;;;;;;;;6491496;39;8900;-60
2023/05/24 16:19:21;;;;;;;;;9.75;8.75;;;;;;;;6490814;39;8873;-59
2023/05/24 16:25:49;;;;;;;;;9.50;9.50;;;;;;;;6490160;39;8923;-61
2023/05/24 16:31:54;;;;;;;;;10.75;10.75;;;;;;;;6491339;31;9008;-58
2023/05/24 16:37:57;;;;;;;;;11.00;10.75;;;;;;;;6490009;39;9543;-57
2023/05/24 16:43:59;;;;;;;;;13.00;12.00;;;;;;;;6490668;39;8909;-58
2023/05/24 16:50:02;;;;;;;;;9.50;9.50;;;;;;;;6490314;39;8857;-58
2023/05/24 16:56:05;;;;;;;;;8.00;8.00;;;;;;;;6490417;39;8971;-58
2023/05/24 17:02:09;;;;;;;;;6.00;6.00;;;;;;;;6489591;46;8964;-58
2023/05/24 17:08:12;;;;;;;;;12.50;12.50;;;;;;;;6489854;39;8874;-58
2023/05/24 17:14:14;;;;;;;;;8.75;8.75;;;;;;;;6490347;46;8872;-56
2023/05/24 17:20:17;;;;;;;;;15.25;13.25;;;;;;;;6488959;46;8985;-57
2023/05/24 17:26:22;;;;;;;;;12.00;12.00;;;;;;;;6490383;39;8947;-58
2023/05/24 17:32:24;;;;;;;;;8.25;8.25;;;;;;;;6490340;39;8901;-57
2023/05/24 17:38:27;;;;;;;;;10.50;10.25;;;;;;;;6489533;46;8849;-58
2023/05/24 17:44:30;;;;;;;;;10.00;10.00;;;;;;;;6489565;46;8937;-60
2023/05/24 17:50:33;;;;;;;;;10.25;8.75;;;;;;;;6489911;46;8877;-57
2023/05/24 17:56:35;;;;;;;;;11.00;10.50;;;;;;;;6490820;39;8937;-58
2023/05/24 18:02:37;;;;;;;;;13.00;12.00;;;;;;;;6489290;46;8999;-57
2023/05/24 18:08:42;;;;;;;;;12.00;12.00;;;;;;;;6488394;31;8885;-58
2023/05/24 18:14:45;;;;;;;;;11.50;11.50;;;;;;;;6490604;39;8975;-57
2023/05/24 18:20:48;;;;;;;;;9.00;9.00;;;;;;;;6488502;39;9608;-57
2023/05/24 18:26:50;;;;;;;;;12.25;11.25;;;;;;;;6489898;39;8797;-59
2023/05/24 18:32:55;;;;;;;;;10.25;8.25;;;;;;;;6489098;39;8866;-59
2023/05/24 18:39:08;;;;;;;;;15.75;14.75;;;;;;;;6488789;39;9077;-58
2023/05/24 18:45:11;;;;;;;;;14.75;13.75;;;;;;;;6489537;46;8841;-57
2023/05/24 18:51:14;;;;;;;;;12.50;12.50;;;;;;;;6489439;31;8971;-57
2023/05/24 18:57:16;;;;;;;;;13.00;13.00;;;;;;;;6489211;39;8938;-57
2023/05/24 19:03:19;;;;;;;;;17.50;15.50;;;;;;;;6489218;39;8900;-57
2023/05/24 19:09:25;;;;;;;;;15.25;15.25;;;;;;;;6488661;31;9418;-57
2023/05/24 19:15:28;;;;;;;;;16.25;16.00;;;;;;;;6489276;46;8901;-59
2023/05/24 19:21:32;;;;;;;;;17.50;17.25;;;;;;;;6488794;46;8866;-58
2023/05/24 19:27:35;;;;;;;;;14.50;14.50;;;;;;;;6489683;39;8900;-57
2023/05/24 19:33:47;;;;;;;;;16.00;15.33;;;;;;;;6488941;39;8890;-56
2023/05/24 19:40:02;;;;;;;;;15.50;14.00;;;;;;;;6489120;39;8883;-58
2023/05/24 19:46:06;;;;;;;;;19.67;16.33;;;;;;;;6490088;46;8897;-57
2023/05/24 19:52:09;;;;;;;;;16.50;15.25;;;;;;;;6490120;31;8863;-59
2023/05/24 19:58:15;;;;;;;;;16.00;16.00;;;;;;;;6491385;39;8925;-58
2023/05/24 20:04:17;;;;;;;;;17.00;17.00;;;;;;;;6490895;39;8920;-57
2023/05/24 20:10:20;;;;;;;;;12.00;12.00;;;;;;;;6489800;46;8916;-57
2023/05/24 20:16:24;;;;;;;;;14.75;14.75;;;;;;;;6489853;46;8941;-57
2023/05/24 20:22:28;;;;;;;;;13.00;11.75;;;;;;;;6489639;31;8915;-57
2023/05/24 20:28:30;;;;;;;;;16.75;14.25;;;;;;;;6491974;31;8988;-57
2023/05/24 20:34:33;;;;;;;;;15.00;14.00;;;;;;;;6490297;39;9744;-58
2023/05/24 20:40:35;;;;;;;;;20.67;18.00;;;;;;;;6490337;46;8809;-55
2023/05/24 20:46:40;;;;;;;;;16.33;15.67;;;;;;;;6490338;39;8936;-56
2023/05/24 20:52:44;;;;;;;;;18.33;17.33;;;;;;;;6489579;46;8954;-58
2023/05/24 20:58:48;;;;;;;;;18.00;15.00;;;;;;;;6491106;31;8909;-57
2023/05/24 21:04:50;;;;;;;;;15.00;14.00;;;;;;;;6489735;39;9057;-58
2023/05/24 21:10:57;;;;;;;;;18.33;14.33;;;;;;;;6490019;46;8812;-57
2023/05/24 21:16:59;;;;;;;;;16.00;15.67;;;;;;;;6489593;46;8948;-56
2023/05/24 21:23:03;;;;;;;;;15.67;15.67;;;;;;;;6490379;39;9600;-57
2023/05/24 21:29:08;;;;;;;;;13.00;13.00;;;;;;;;6490348;31;8841;-57
2023/05/24 21:35:13;;;;;;;;;14.67;14.00;;;;;;;;6490517;31;8849;-58
2023/05/24 21:41:18;;;;;;;;;18.00;14.67;;;;;;;;6491183;31;8905;-58
2023/05/24 21:47:23;;;;;;;;;14.00;14.00;;;;;;;;6489554;39;8897;-56
2023/05/24 21:53:25;;;;;;;;;16.33;14.00;;;;;;;;6489787;39;8868;-57
2023/05/24 21:59:28;;;;;;;;;16.25;16.25;;;;;;;;6309665;39;10000812;-57
2023/05/24 22:05:30;;;;;;;;;13.33;13.33;;;;;;;;6489805;31;8900;-56
2023/05/24 22:11:33;;;;;;;;;17.00;17.00;;;;;;;;6489538;39;8922;-57
2023/05/24 22:17:39;;;;;;;;;15.00;11.00;;;;;;;;6489731;39;8987;-57
2023/05/24 22:23:42;;;;;;;;;12.33;12.33;;;;;;;;6489850;31;8987;-58
2023/05/24 22:29:45;;;;;;;;;13.00;12.67;;;;;;;;6490330;39;8865;-57
2023/05/24 22:35:50;;;;;;;;;14.00;12.50;;;;;;;;6488656;46;8941;-56
2023/05/24 22:41:53;;;;;;;;;11.67;10.67;;;;;;;;6489806;46;8884;-58
2023/05/24 22:47:57;;;;;;;;;15.00;12.67;;;;;;;;6489228;31;8865;-56
2023/05/24 22:54:00;;;;;;;;;13.33;12.00;;;;;;;;6489214;39;8955;-56
2023/05/24 23:00:07;;;;;;;;;15.33;14.00;;;;;;;;6489342;31;8901;-56
2023/05/24 23:06:10;;;;;;;;;12.67;12.33;;;;;;;;6489443;39;8927;-55
2023/05/24 23:12:14;;;;;;;;;14.00;13.33;;;;;;;;6489827;39;8940;-57
2023/05/24 23:18:21;;;;;;;;;12.67;12.67;;;;;;;;6487929;46;8881;-57
2023/05/24 23:24:25;;;;;;;;;14.67;14.00;;;;;;;;6489812;39;8841;-57
2023/05/24 23:30:29;;;;;;;;;13.33;12.67;;;;;;;;6489078;39;8935;-58
2023/05/24 23:36:31;;;;;;;;;17.67;17.33;;;;;;;;6487682;47;8943;-56
2023/05/24 23:42:35;;;;;;;;;17.67;17.00;;;;;;;;6490607;39;8968;-58
2023/05/24 23:48:37;;;;;;;;;19.00;18.67;;;;;;;;6488888;39;10126;-56
2023/05/24 23:54:40;;;;;;;;;14.33;12.67;;;;;;;;6488465;47;8869;-57
